Cranbrook Airport
CYXC : now visible

Airfield :











YOU CAN JOIN US ON...

 
LOGIN :

Register | Disclaimer

   EN    FR    IT 

 









Legend :    VFR   Marginal VFR   IFR   Intensive IFR   Very Intensive IFR
Visi :
Ceiling :
>= 8 km
>= 3000ft
5 to 8 km
1000 to 3000 ft
1500m to 5 km
500 to 1000 ft
800 to 1500m
200 to 500 ft
< 800m
< 200 ft
Symbols :   Thunderstorms  Fog  Heavy snow  Heavy precipitations  Wind > 20 kt







- Airport Elevation : 3082 ft
- IATA code : YXC


CYXC - Cranbrook

CURRENT METAR :
  • 160500Z 28006KT 260V330 25SM FEW090 BKN150 14/09 A2973 RMK AC2AC4 SLP067 DENSITY ALT 4000FT

EXPIRED METARs :
  • 160400Z 28004KT 25SM FEW065 BKN110 BKN200 15/09 A2971 RMK SC1AC4CI1 SLP060 DENSITY ALT 4100FT
  • 160300Z 18006KT 25SM FEW065 SCT110 BKN200 15/09 A2970 RMK SC1AC3CI1 SLP059 DENSITY ALT 4100FT

TAF TAF CYXC
Valid from the 16 at 01:00 until the 16 at 13:00 UTC


160038Z 1601/1613 20008KT P6SM SCT070 RMK NXT FCST BY 160700Z
No reported NOTAMs for that airfield.



MET'MAP, your aeronautical weather chart ! - Copyright ORBIFLY December 2007 - Disclaimer

ORBIFLY MET'MAP TEAM :

Programming & Development : Alexandra Zaïnal
Concept & Development : Baudouin d'Aumeries
Co-Development & Prog : Marc-Olivier Méhu
Technical & hardware support : Manuel Goepfert

Contact : metmap@orbifly.com




SOURCES & CREDITS :

   NOAA       Earth
Advisory